createdAt,value
2022-10-05T00:01:36.987Z,12.11
2022-10-05T00:04:59.311Z,12.09
2022-10-05T00:08:24.425Z,12.06
2022-10-05T00:11:46.463Z,12.03
2022-10-05T00:15:13.407Z,11.99
2022-10-05T00:18:35.001Z,11.96
2022-10-05T00:21:58.139Z,11.93
2022-10-05T00:25:22.915Z,11.88
2022-10-05T00:28:44.623Z,11.85
2022-10-05T00:32:06.536Z,11.83
2022-10-05T00:35:29.385Z,11.82
2022-10-05T00:38:51.126Z,11.81
2022-10-05T00:42:30.883Z,11.79
2022-10-05T00:45:57.886Z,11.79
2022-10-05T00:49:38.117Z,11.77
2022-10-05T00:53:07.075Z,11.80
2022-10-05T00:56:49.970Z,11.80
2022-10-05T01:00:16.990Z,11.75
2022-10-05T01:03:50.549Z,11.80
2022-10-05T01:07:20.563Z,11.81
2022-10-05T01:10:48.611Z,11.81
2022-10-05T01:14:17.731Z,11.81
2022-10-05T01:17:46.725Z,11.82
2022-10-05T01:21:18.553Z,11.85
2022-10-05T01:24:58.821Z,11.85
2022-10-05T01:28:25.425Z,11.85
2022-10-05T01:31:53.664Z,11.82
2022-10-05T01:35:25.964Z,11.80
2022-10-05T01:38:57.904Z,11.75
2022-10-05T01:42:31.430Z,11.71
2022-10-05T01:46:01.981Z,11.67
2022-10-05T01:49:38.124Z,11.64
2022-10-05T01:53:08.978Z,11.58
2022-10-05T01:56:39.402Z,11.52
2022-10-05T02:00:07.649Z,11.44
2022-10-05T02:03:46.110Z,11.37
2022-10-05T02:07:11.504Z,11.29
2022-10-05T02:10:37.542Z,11.23
2022-10-05T02:14:03.513Z,11.17
2022-10-05T02:17:31.919Z,11.07
2022-10-05T02:20:59.470Z,11.00
2022-10-05T02:24:25.988Z,10.95
2022-10-05T02:27:51.349Z,10.90
2022-10-05T02:31:16.707Z,10.80
2022-10-05T02:34:40.704Z,10.73
2022-10-05T02:38:27.404Z,10.68
2022-10-05T02:41:56.990Z,10.62
2022-10-05T02:45:29.086Z,10.56
2022-10-05T02:49:02.582Z,10.50
2022-10-05T02:52:30.993Z,10.45
2022-10-05T02:56:06.466Z,10.40
2022-10-05T02:59:32.983Z,10.37
2022-10-05T03:03:07.165Z,10.37
2022-10-05T03:06:33.790Z,10.35
2022-10-05T03:10:02.618Z,10.34
2022-10-05T03:13:37.081Z,10.34
2022-10-05T03:17:11.797Z,10.33
2022-10-05T03:20:42.097Z,10.35
2022-10-05T03:24:20.299Z,10.37
2022-10-05T03:27:46.205Z,10.36
2022-10-05T03:31:20.052Z,10.34
2022-10-05T03:34:47.506Z,10.34
2022-10-05T03:38:15.845Z,10.34
2022-10-05T03:41:43.521Z,10.36
2022-10-05T03:45:11.149Z,10.38
2022-10-05T03:48:41.194Z,10.42
2022-10-05T03:52:08.217Z,10.46
2022-10-05T03:55:36.887Z,10.51
2022-10-05T03:59:04.339Z,10.52
2022-10-05T04:02:30.441Z,10.60
2022-10-05T04:05:56.327Z,10.66
2022-10-05T04:09:23.906Z,10.71
2022-10-05T04:12:50.407Z,10.77
2022-10-05T04:16:16.056Z,10.81
2022-10-05T04:19:41.609Z,10.86
2022-10-05T04:23:15.819Z,10.91
2022-10-05T04:26:44.451Z,10.96
2022-10-05T04:30:12.411Z,10.97
2022-10-05T04:33:34.864Z,10.99
2022-10-05T04:37:02.322Z,10.99
2022-10-05T04:40:39.493Z,11.00
2022-10-05T04:44:18.205Z,11.02
2022-10-05T04:48:12.075Z,11.03
2022-10-05T04:51:46.573Z,11.07
2022-10-05T04:55:22.941Z,11.05
2022-10-05T04:59:01.830Z,11.06
2022-10-05T05:02:33.293Z,11.07
2022-10-05T05:06:18.344Z,11.05
2022-10-05T05:10:07.769Z,11.05
2022-10-05T05:13:52.519Z,11.06
2022-10-05T05:17:32.105Z,11.04
2022-10-05T05:21:03.276Z,11.05
2022-10-05T05:24:41.437Z,11.07
2022-10-05T05:28:18.544Z,11.04
2022-10-05T05:31:48.231Z,11.04
2022-10-05T05:35:29.395Z,11.06
2022-10-05T05:39:01.640Z,11.10
2022-10-05T05:42:38.387Z,11.12
2022-10-05T05:46:01.910Z,11.14
2022-10-05T05:49:34.232Z,11.19
2022-10-05T05:53:02.165Z,11.22
2022-10-05T05:56:32.572Z,11.23
2022-10-05T06:00:05.502Z,11.24
2022-10-05T06:03:39.723Z,11.27
2022-10-05T06:07:06.014Z,11.29
2022-10-05T06:10:36.524Z,11.30
2022-10-05T06:14:12.419Z,11.34
2022-10-05T06:17:40.137Z,11.37
2022-10-05T06:21:07.880Z,11.39
2022-10-05T06:24:35.821Z,11.41
2022-10-05T06:28:04.577Z,11.46
2022-10-05T06:31:54.173Z,11.48
2022-10-05T06:35:27.724Z,11.51
2022-10-05T06:39:30.118Z,11.52
2022-10-05T06:43:06.711Z,11.58
2022-10-05T06:46:33.132Z,11.62
2022-10-05T06:50:33.849Z,11.67
2022-10-05T06:54:26.803Z,11.71
2022-10-05T06:58:01.198Z,11.75
2022-10-05T07:01:38.455Z,11.78
2022-10-05T07:05:26.529Z,11.82
2022-10-05T07:09:04.011Z,11.88
2022-10-05T07:12:59.754Z,11.94
2022-10-05T07:16:32.456Z,12.02
2022-10-05T07:20:04.853Z,12.06
2022-10-05T07:23:43.891Z,12.12
2022-10-05T07:27:13.531Z,12.19
2022-10-05T07:30:44.612Z,12.24
2022-10-05T07:34:10.837Z,12.34
2022-10-05T07:37:57.734Z,12.41
2022-10-05T07:41:31.206Z,12.48
2022-10-05T07:44:59.408Z,12.53
2022-10-05T07:48:23.649Z,12.61
2022-10-05T07:51:49.379Z,12.63
2022-10-05T07:55:20.186Z,12.68
2022-10-05T07:58:47.412Z,12.72
2022-10-05T08:02:22.679Z,12.78
2022-10-05T08:05:47.225Z,12.80
2022-10-05T08:09:24.061Z,12.87
2022-10-05T08:13:04.080Z,12.93
2022-10-05T08:16:32.362Z,12.99
2022-10-05T08:20:02.250Z,13.05
2022-10-05T08:23:29.271Z,13.10
2022-10-05T08:26:56.375Z,13.15
2022-10-05T08:30:20.421Z,13.20
2022-10-05T08:33:52.607Z,13.27
2022-10-05T08:37:19.839Z,13.34
2022-10-05T08:41:10.718Z,13.38
2022-10-05T08:45:07.981Z,13.42
2022-10-05T08:48:59.272Z,13.49
2022-10-05T08:52:29.125Z,13.53
2022-10-05T08:56:08.330Z,13.62
2022-10-05T08:59:58.642Z,13.69
2022-10-05T09:03:36.690Z,13.74
2022-10-05T09:07:14.665Z,13.80
2022-10-05T09:11:03.653Z,13.88
2022-10-05T09:15:07.150Z,13.94
2022-10-05T09:19:05.551Z,14.00
2022-10-05T09:22:53.619Z,14.04
2022-10-05T09:26:44.201Z,14.12
2022-10-05T09:30:27.112Z,14.15
2022-10-05T09:34:26.097Z,14.24
2022-10-05T09:38:19.639Z,14.29
2022-10-05T09:42:07.722Z,14.36
2022-10-05T09:46:13.894Z,14.40
2022-10-05T09:49:53.607Z,14.48
2022-10-05T09:53:44.872Z,14.59
2022-10-05T09:57:40.813Z,14.66
2022-10-05T10:01:32.681Z,14.72
2022-10-05T10:05:09.309Z,14.77
2022-10-05T10:08:43.516Z,14.82
2022-10-05T10:12:28.777Z,14.88
2022-10-05T10:16:11.913Z,14.93
2022-10-05T10:19:58.978Z,14.97
2022-10-05T10:23:30.638Z,15.06
2022-10-05T10:27:16.587Z,15.12
2022-10-05T10:31:01.645Z,15.15
2022-10-05T10:34:58.884Z,15.24
2022-10-05T10:38:41.314Z,15.33
2022-10-05T10:42:35.329Z,15.38
2022-10-05T10:46:03.176Z,15.45
2022-10-05T10:49:43.001Z,15.51
2022-10-05T10:53:32.621Z,15.59
2022-10-05T10:57:06.781Z,15.67
2022-10-05T11:00:41.921Z,15.70
2022-10-05T11:04:37.171Z,15.78
2022-10-05T11:08:32.323Z,15.86
2022-10-05T11:12:33.560Z,15.94
2022-10-05T11:16:33.273Z,16.00
2022-10-05T11:20:17.850Z,16.11
2022-10-05T11:23:57.828Z,16.19
2022-10-05T11:27:47.594Z,16.29
2022-10-05T11:32:06.110Z,16.41
2022-10-05T11:35:57.148Z,16.48
2022-10-05T11:39:33.089Z,16.52
2022-10-05T11:43:15.316Z,16.56
2022-10-05T11:46:46.089Z,16.63
2022-10-05T11:50:21.382Z,16.72
2022-10-05T11:53:50.293Z,16.80
2022-10-05T11:57:17.659Z,16.88
2022-10-05T12:00:43.578Z,16.97
2022-10-05T12:04:18.343Z,17.04
2022-10-05T12:07:48.783Z,17.11
2022-10-05T12:11:26.849Z,17.12
2022-10-05T12:14:57.510Z,17.13
2022-10-05T12:18:24.877Z,17.17
2022-10-05T12:21:52.624Z,17.22
2022-10-05T12:25:26.663Z,17.28
2022-10-05T12:28:54.335Z,17.33
2022-10-05T12:32:20.894Z,17.37
2022-10-05T12:35:50.439Z,17.45
2022-10-05T12:39:22.636Z,17.50
2022-10-05T12:42:55.074Z,17.55
2022-10-05T12:46:24.380Z,17.59
2022-10-05T12:50:04.309Z,17.62
2022-10-05T12:53:39.325Z,17.70
2022-10-05T12:57:07.628Z,17.74
2022-10-05T13:00:35.137Z,17.78
2022-10-05T13:04:05.961Z,17.81
2022-10-05T13:07:44.897Z,17.85
2022-10-05T13:11:16.118Z,17.86
2022-10-05T13:14:50.223Z,17.84
2022-10-05T13:18:23.195Z,17.82
2022-10-05T13:22:20.630Z,17.79
2022-10-05T13:25:51.660Z,17.88
2022-10-05T13:29:20.043Z,17.92
2022-10-05T13:32:45.028Z,17.98
2022-10-05T13:36:17.303Z,18.01
2022-10-05T13:39:54.846Z,18.07
2022-10-05T13:43:24.049Z,18.10
2022-10-05T13:46:50.315Z,18.11
2022-10-05T13:50:20.051Z,18.11
2022-10-05T13:53:49.104Z,18.16
2022-10-05T13:57:19.320Z,18.22
2022-10-05T14:00:47.996Z,18.30
2022-10-05T14:04:17.866Z,18.30
2022-10-05T14:07:49.333Z,18.30
2022-10-05T14:11:27.662Z,18.33
2022-10-05T14:14:51.724Z,18.37
2022-10-05T14:18:25.246Z,18.44
2022-10-05T14:21:53.400Z,18.51
2022-10-05T14:25:18.269Z,18.58
2022-10-05T14:28:43.690Z,18.63
2022-10-05T14:32:18.612Z,18.69
2022-10-05T14:35:50.045Z,18.74
2022-10-05T14:39:13.750Z,18.75
2022-10-05T14:42:47.312Z,18.78
2022-10-05T14:46:27.236Z,18.82
2022-10-05T14:50:10.570Z,18.88
2022-10-05T14:53:39.749Z,18.93
2022-10-05T14:57:18.021Z,19.01
2022-10-05T15:00:50.267Z,19.08
2022-10-05T15:04:30.346Z,19.15
2022-10-05T15:07:57.199Z,19.15
2022-10-05T15:11:30.294Z,19.13
2022-10-05T15:14:56.998Z,19.20
2022-10-05T15:18:30.969Z,19.26
2022-10-05T15:22:11.722Z,19.32
2022-10-05T15:25:40.355Z,19.37
2022-10-05T15:29:10.969Z,19.61
2022-10-05T15:32:44.859Z,20.11
2022-10-05T15:36:12.946Z,20.17
2022-10-05T15:39:43.300Z,20.03
2022-10-05T15:43:11.240Z,19.99
2022-10-05T15:46:36.658Z,20.17
2022-10-05T15:50:07.496Z,20.42
2022-10-05T15:53:37.042Z,20.28
2022-10-05T15:57:08.776Z,20.01
2022-10-05T16:00:34.925Z,19.79
2022-10-05T16:04:06.616Z,19.58
2022-10-05T16:07:50.741Z,19.39
2022-10-05T16:11:22.759Z,19.23
2022-10-05T16:14:56.645Z,19.05
2022-10-05T16:18:45.619Z,18.88
2022-10-05T16:22:16.043Z,18.74
2022-10-05T16:25:48.107Z,18.58
2022-10-05T16:29:16.149Z,18.42
2022-10-05T16:32:44.081Z,18.25
2022-10-05T16:36:13.656Z,18.05
2022-10-05T16:39:52.695Z,17.86
2022-10-05T16:43:30.515Z,17.68
2022-10-05T16:47:00.263Z,17.53
2022-10-05T16:50:31.266Z,17.35
2022-10-05T16:54:03.079Z,17.18
2022-10-05T16:57:28.167Z,17.03
2022-10-05T17:01:12.889Z,16.85
2022-10-05T17:04:46.461Z,16.67
2022-10-05T17:08:29.477Z,16.52
2022-10-05T17:12:19.074Z,16.41
2022-10-05T17:16:01.163Z,16.31
2022-10-05T17:19:43.041Z,16.21
2022-10-05T17:23:16.988Z,16.11
2022-10-05T17:26:57.028Z,16.00
2022-10-05T17:30:53.983Z,15.88
2022-10-05T17:34:30.164Z,15.76
2022-10-05T17:38:16.168Z,15.62
2022-10-05T17:41:38.754Z,15.52
2022-10-05T17:45:22.028Z,15.40
2022-10-05T17:49:12.533Z,15.26
2022-10-05T17:52:51.629Z,15.14
2022-10-05T17:56:13.101Z,15.02
2022-10-05T17:59:45.557Z,14.90
2022-10-05T18:03:43.420Z,14.79
2022-10-05T18:07:17.201Z,14.68
2022-10-05T18:10:41.263Z,14.57
2022-10-05T18:14:18.873Z,14.47
2022-10-05T18:17:45.299Z,14.38
2022-10-05T18:21:28.113Z,14.26
2022-10-05T18:25:05.770Z,14.17
2022-10-05T18:28:40.853Z,14.10
2022-10-05T18:32:09.014Z,13.99
2022-10-05T18:35:42.488Z,13.90
2022-10-05T18:39:18.424Z,13.82
2022-10-05T18:42:45.150Z,13.74
2022-10-05T18:46:21.914Z,13.65
2022-10-05T18:49:58.388Z,13.57
2022-10-05T18:53:29.090Z,13.50
2022-10-05T18:56:53.782Z,13.42
2022-10-05T19:00:18.650Z,13.34
2022-10-05T19:03:51.138Z,13.29
2022-10-05T19:07:24.857Z,13.22
2022-10-05T19:10:51.046Z,13.17
2022-10-05T19:14:24.607Z,13.10
2022-10-05T19:18:05.505Z,13.05
2022-10-05T19:21:37.927Z,12.98
2022-10-05T19:25:20.496Z,12.93
2022-10-05T19:28:55.824Z,12.85
2022-10-05T19:32:27.619Z,12.78
2022-10-05T19:36:04.392Z,12.72
2022-10-05T19:39:38.985Z,12.67
2022-10-05T19:43:19.088Z,12.62
2022-10-05T19:46:55.379Z,12.57
2022-10-05T19:50:27.597Z,12.53
2022-10-05T19:53:51.221Z,12.50
2022-10-05T19:57:17.974Z,12.49
2022-10-05T20:00:39.644Z,12.51
2022-10-05T20:04:01.257Z,12.57
2022-10-05T20:07:24.363Z,12.64
2022-10-05T20:10:47.104Z,12.72
2022-10-05T20:14:19.585Z,12.90
2022-10-05T20:17:58.301Z,13.00
2022-10-05T20:21:43.751Z,13.11
2022-10-05T20:25:08.582Z,13.23
2022-10-05T20:28:33.564Z,13.31
2022-10-05T20:31:55.018Z,13.42
2022-10-05T20:35:16.861Z,13.51
2022-10-05T20:38:41.028Z,13.57
2022-10-05T20:42:04.182Z,13.64
2022-10-05T20:45:25.923Z,13.74
2022-10-05T20:48:47.678Z,13.81
2022-10-05T20:52:10.857Z,13.88
2022-10-05T20:55:34.166Z,13.95
2022-10-05T20:58:57.071Z,14.00
2022-10-05T21:02:19.938Z,14.09
2022-10-05T21:05:41.521Z,14.11
2022-10-05T21:09:03.004Z,14.18
2022-10-05T21:12:24.886Z,14.23
2022-10-05T21:15:48.312Z,14.29
2022-10-05T21:19:12.287Z,14.31
2022-10-05T21:22:36.261Z,14.36
2022-10-05T21:25:57.631Z,14.44
2022-10-05T21:29:18.973Z,14.47
2022-10-05T21:32:44.438Z,14.52
2022-10-05T21:36:07.128Z,14.54
2022-10-05T21:39:28.909Z,14.59
2022-10-05T21:42:50.711Z,14.65
2022-10-05T21:46:14.154Z,14.70
2022-10-05T21:49:37.638Z,14.72
2022-10-05T21:53:00.605Z,14.77
2022-10-05T21:56:26.372Z,14.80
2022-10-05T21:59:48.032Z,14.81
2022-10-05T22:03:09.435Z,14.83
2022-10-05T22:06:32.574Z,14.84
2022-10-05T22:09:53.818Z,14.86
2022-10-05T22:13:16.074Z,14.83
2022-10-05T22:16:40.411Z,14.87
2022-10-05T22:20:02.239Z,14.89
2022-10-05T22:23:25.256Z,14.90
2022-10-05T22:26:51.326Z,14.90
2022-10-05T22:30:14.723Z,14.93
2022-10-05T22:33:36.986Z,14.95
2022-10-05T22:36:59.387Z,14.97
2022-10-05T22:40:22.255Z,15.00
2022-10-05T22:43:44.081Z,14.98
2022-10-05T22:47:05.504Z,15.00
2022-10-05T22:50:27.203Z,15.03
2022-10-05T22:53:48.837Z,15.10
2022-10-05T22:57:12.005Z,15.13
2022-10-05T23:00:56.433Z,15.17
2022-10-05T23:04:15.039Z,15.18
2022-10-05T23:07:37.805Z,15.22
2022-10-05T23:11:03.595Z,15.25
2022-10-05T23:14:26.971Z,15.26
2022-10-05T23:17:48.655Z,15.29
2022-10-05T23:21:11.086Z,15.29
2022-10-05T23:24:32.558Z,15.33
2022-10-05T23:27:53.859Z,15.33
2022-10-05T23:31:18.538Z,15.34
2022-10-05T23:34:40.154Z,15.39
2022-10-05T23:38:01.427Z,15.42
2022-10-05T23:41:22.879Z,15.42
2022-10-05T23:44:44.334Z,15.45
2022-10-05T23:48:07.607Z,15.47
2022-10-05T23:51:29.061Z,15.51
2022-10-05T23:54:50.837Z,15.53
2022-10-05T23:58:13.835Z,15.50
